Time;durP1;ratioP1;P1;durP2;ratioP2;P2;SDS_P1;SDS_P2;PMS_P1;PMS_P2;Temp;Humidity;BMP_temperature;BMP_pressure;BME280_temperature;BME280_humidity;BME280_pressure;Samples;Min_cycle;Max_cycle;Signal;HPM_P1;HPM_P2
2022/07/09 00:01:16;;;;;;;;;;;;;;;19.68;87.41;95127.78;5134202;28;1059;-49
2022/07/09 00:03:42;;;;;;;;;;;;;;;19.59;87.79;95120.13;5133896;28;1838;-49
2022/07/09 00:06:08;;;;;;;;;;;;;;;19.47;87.89;95117.28;5133892;28;1032;-49
2022/07/09 00:08:34;;;;;;;;;;;;;;;19.36;90.25;95115.25;5133984;28;1008;-49
2022/07/09 00:11:00;;;;;;;;;;;;;;;19.21;90.70;95110.94;5133862;28;961;-49
2022/07/09 00:13:26;;;;;;;;;;;;;;;19.15;91.27;95117.22;5133916;28;1906;-48
2022/07/09 00:15:55;;;;;;;;;;;;;;;19.20;92.38;95106.59;5134160;28;996;-48
2022/07/09 00:18:21;;;;;;;;;;;;;;;19.28;90.83;95100.91;5134014;28;974;-49
2022/07/09 00:20:47;;;;;;;;;;;;;;;19.28;89.85;95098.19;5133918;28;961;-49
2022/07/09 00:23:13;;;;;;;;;;;;;;;19.21;91.24;95089.25;5133848;28;1016;-49
2022/07/09 00:25:39;;;;;;;;;;;;;;;19.20;90.37;95089.47;5133738;28;948;-49
2022/07/09 00:28:05;;;;;;;;;;;;;;;19.19;89.84;95088.66;5134066;28;1062;-49
2022/07/09 00:30:31;;;;;;;;;;;;;;;19.25;89.70;95089.66;5133693;28;1091;-49
2022/07/09 00:32:57;;;;;;;;;;;;;;;19.23;88.93;95081.75;5133752;28;1990;-49
2022/07/09 00:35:23;;;;;;;;;;;;;;;19.15;89.61;95082.00;5133552;28;980;-49
2022/07/09 00:37:49;;;;;;;;;;;;;;;19.14;88.93;95072.19;5133787;28;1154;-49
2022/07/09 00:40:15;;;;;;;;;;;;;;;19.22;88.47;95071.97;5133508;28;973;-49
2022/07/09 00:42:41;;;;;;;;;;;;;;;19.24;88.07;95069.88;5139344;27;1161;-49
2022/07/09 00:45:07;;;;;;;;;;;;;;;19.30;87.44;95066.28;5154387;27;1067;-49
2022/07/09 00:47:33;;;;;;;;;;;;;;;19.30;87.76;95065.47;5154530;27;984;-49
2022/07/09 00:50:00;;;;;;;;;;;;;;;19.30;87.19;95066.28;5154199;27;1165;-49
2022/07/09 00:52:27;;;;;;;;;;;;;;;19.22;87.37;95053.00;5154415;27;1905;-49
2022/07/09 00:54:54;;;;;;;;;;;;;;;19.17;87.99;95047.38;5154121;27;1003;-49
2022/07/09 00:57:22;;;;;;;;;;;;;;;19.17;88.51;95049.28;5154514;27;968;-49
2022/07/09 00:59:48;;;;;;;;;;;;;;;19.13;87.84;95045.34;5154230;27;1019;-49
2022/07/09 01:02:14;;;;;;;;;;;;;;;19.12;88.03;95039.06;5158094;27;1008;-49
2022/07/09 01:04:40;;;;;;;;;;;;;;;19.12;88.78;95039.06;5157725;27;1055;-49
2022/07/09 01:07:07;;;;;;;;;;;;;;;19.01;88.88;95028.91;5157901;27;1127;-49
2022/07/09 01:09:33;;;;;;;;;;;;;;;19.11;87.36;95026.59;5157714;27;1043;-49
2022/07/09 01:11:59;;;;;;;;;;;;;;;19.02;87.90;95027.88;5157772;27;1910;-49
2022/07/09 01:14:26;;;;;;;;;;;;;;;19.04;87.92;95023.06;5157820;27;944;-49
2022/07/09 01:17:02;;;;;;;;;;;;;;;19.08;87.31;95021.59;5157965;27;957;-49
2022/07/09 01:19:29;;;;;;;;;;;;;;;19.08;86.64;95018.88;5139416;27;1016;-49
2022/07/09 01:21:55;;;;;;;;;;;;;;;19.01;87.05;95021.63;5157598;27;1051;-49
2022/07/09 01:24:21;;;;;;;;;;;;;;;19.06;86.46;95018.25;5157438;27;1083;-49
2022/07/09 01:26:47;;;;;;;;;;;;;;;18.98;87.14;95022.06;5157606;27;991;-49
2022/07/09 01:29:13;;;;;;;;;;;;;;;19.00;86.40;95016.44;5157630;27;995;-49
2022/07/09 01:31:39;;;;;;;;;;;;;;;19.14;85.73;95023.41;5157358;27;1910;-49
2022/07/09 01:34:06;;;;;;;;;;;;;;;19.17;85.29;95030.31;5157074;27;1268;-49
2022/07/09 01:36:33;;;;;;;;;;;;;;;19.10;85.96;95035.75;5157122;27;1020;-49
2022/07/09 01:38:59;;;;;;;;;;;;;;;19.20;84.90;95036.13;5157265;27;1026;-49
2022/07/09 01:41:25;;;;;;;;;;;;;;;19.21;85.36;95036.94;5157356;27;972;-48
2022/07/09 01:43:52;;;;;;;;;;;;;;;19.11;86.88;95037.44;5141751;27;1227;-49
2022/07/09 01:46:18;;;;;;;;;;;;;;;19.07;86.68;95028.06;5136331;27;1007;-48
2022/07/09 01:48:44;;;;;;;;;;;;;;;19.09;86.51;95028.69;5136478;27;944;-49
2022/07/09 01:51:11;;;;;;;;;;;;;;;19.10;86.03;95033.88;5136073;27;1013;-49
2022/07/09 01:53:39;;;;;;;;;;;;;;;19.11;86.11;95027.41;5136475;27;1986;-48
2022/07/09 01:56:06;;;;;;;;;;;;;;;19.14;86.14;95023.41;5136200;27;1039;-49
2022/07/09 01:58:33;;;;;;;;;;;;;;;19.19;85.73;95028.22;5117827;27;1393;-49
2022/07/09 02:00:59;;;;;;;;;;;;;;;19.06;87.13;95029.09;5135988;27;1072;-49
2022/07/09 02:03:25;;;;;;;;;;;;;;;19.18;85.23;95030.09;5136106;27;1020;-49
2022/07/09 02:05:52;;;;;;;;;;;;;;;19.02;87.31;95025.16;5135649;27;1032;-49
2022/07/09 02:08:18;;;;;;;;;;;;;;;18.94;87.38;95023.53;5136149;27;957;-49
2022/07/09 02:10:44;;;;;;;;;;;;;;;19.03;86.63;95026.84;5136043;27;971;-49
2022/07/09 02:13:10;;;;;;;;;;;;;;;19.16;86.08;95024.06;5134971;27;1909;-49
2022/07/09 02:15:36;;;;;;;;;;;;;;;19.23;85.22;95019.41;5135713;27;1115;-49
2022/07/09 02:18:02;;;;;;;;;;;;;;;19.31;84.66;95021.88;5135759;27;1007;-49
2022/07/09 02:20:28;;;;;;;;;;;;;;;19.17;87.53;95031.13;5135606;27;1044;-50
2022/07/09 02:22:54;;;;;;;;;;;;;;;19.09;86.63;95021.38;5135669;27;1040;-50
2022/07/09 02:25:20;;;;;;;;;;;;;;;19.14;85.93;95011.75;5135539;27;1083;-49
2022/07/09 02:27:46;;;;;;;;;;;;;;;19.17;85.87;95023.00;5135489;27;1036;-49
2022/07/09 02:30:13;;;;;;;;;;;;;;;19.13;86.79;95021.78;5135471;27;1020;-49
2022/07/09 02:32:39;;;;;;;;;;;;;;;19.12;86.68;95020.09;5135371;27;1914;-49
2022/07/09 02:35:05;;;;;;;;;;;;;;;19.03;86.68;95024.97;5135085;27;1156;-49
2022/07/09 02:37:32;;;;;;;;;;;;;;;19.04;86.56;95031.19;5135245;27;1067;-49
2022/07/09 02:39:58;;;;;;;;;;;;;;;19.09;86.50;95034.09;5135594;27;999;-49
2022/07/09 02:42:24;;;;;;;;;;;;;;;19.09;86.25;95036.81;5138172;27;1267;-49
2022/07/09 02:44:50;;;;;;;;;;;;;;;19.18;85.84;95050.91;5156038;27;1087;-49
2022/07/09 02:47:16;;;;;;;;;;;;;;;19.03;87.53;95045.81;5155769;27;1011;-49
2022/07/09 02:49:42;;;;;;;;;;;;;;;19.14;85.97;95042.38;5155886;27;1083;-49
2022/07/09 02:52:08;;;;;;;;;;;;;;;19.15;86.65;95043.25;5155505;27;1905;-49
2022/07/09 02:54:34;;;;;;;;;;;;;;;19.13;86.05;95039.94;5156080;27;976;-49
2022/07/09 02:57:00;;;;;;;;;;;;;;;19.16;84.98;95053.88;5155706;27;948;-49
2022/07/09 02:59:26;;;;;;;;;;;;;;;19.08;85.77;95051.41;5155909;27;964;-50
2022/07/09 03:01:52;;;;;;;;;;;;;;;19.03;86.10;95048.53;5155481;27;1016;-49
2022/07/09 03:04:18;;;;;;;;;;;;;;;19.11;84.94;95053.69;5155367;27;1071;-50
2022/07/09 03:06:44;;;;;;;;;;;;;;;19.10;85.42;95046.59;5155316;27;1021;-49
2022/07/09 03:09:10;;;;;;;;;;;;;;;19.06;85.18;95045.38;5155718;27;1015;-49
2022/07/09 03:11:36;;;;;;;;;;;;;;;18.98;85.01;95048.34;5155420;27;1918;-49
2022/07/09 03:14:02;;;;;;;;;;;;;;;19.09;84.35;95048.47;5155553;27;974;-48
2022/07/09 03:16:29;;;;;;;;;;;;;;;19.12;84.80;95055.31;5155400;27;1007;-49
2022/07/09 03:18:55;;;;;;;;;;;;;;;19.00;85.16;95048.94;5155412;27;1017;-49
2022/07/09 03:21:21;;;;;;;;;;;;;;;18.95;85.48;95049.56;5155159;27;1035;-50
2022/07/09 03:23:47;;;;;;;;;;;;;;;19.02;84.88;95049.56;5155232;27;1052;-49
2022/07/09 03:26:13;;;;;;;;;;;;;;;18.98;85.14;95056.47;5155182;27;1201;-50
2022/07/09 03:28:39;;;;;;;;;;;;;;;19.09;83.56;95053.91;5155222;27;969;-50
2022/07/09 03:31:05;;;;;;;;;;;;;;;19.02;84.72;95049.56;5155187;27;1023;-49
2022/07/09 03:33:31;;;;;;;;;;;;;;;19.02;84.54;95046.84;5154731;27;1917;-50
2022/07/09 03:35:58;;;;;;;;;;;;;;;18.92;86.40;95045.44;5154879;27;1302;-50
2022/07/09 03:38:24;;;;;;;;;;;;;;;18.81;85.80;95059.66;5155114;27;1023;-49
2022/07/09 03:40:50;;;;;;;;;;;;;;;18.86;85.49;95056.31;5155295;27;1031;-49
2022/07/09 03:43:16;;;;;;;;;;;;;;;18.88;85.01;95059.63;5144359;27;1208;-50
2022/07/09 03:45:42;;;;;;;;;;;;;;;19.00;83.90;95054.38;5134382;27;1031;-49
2022/07/09 03:48:09;;;;;;;;;;;;;;;18.97;85.05;95057.50;5134035;27;1028;-49
2022/07/09 03:50:35;;;;;;;;;;;;;;;18.87;85.09;95063.38;5134217;27;969;-49
2022/07/09 03:53:01;;;;;;;;;;;;;;;19.01;83.69;95058.72;5134127;27;1914;-49
2022/07/09 03:55:27;;;;;;;;;;;;;;;18.99;83.76;95050.84;5134344;28;1019;-49
2022/07/09 03:57:53;;;;;;;;;;;;;;;18.95;84.41;95055.00;5133971;28;1017;-50
2022/07/09 04:00:19;;;;;;;;;;;;;;;18.85;84.45;95060.06;5134217;28;1020;-48
2022/07/09 04:02:45;;;;;;;;;;;;;;;18.80;87.61;95067.94;5134117;28;1052;-48
2022/07/09 04:05:11;;;;;;;;;;;;;;;18.75;87.13;95060.47;5133829;28;949;-48
2022/07/09 04:07:39;;;;;;;;;;;;;;;18.86;84.80;95062.56;5134128;28;1060;-48
2022/07/09 04:10:06;;;;;;;;;;;;;;;18.99;83.36;95061.66;5133974;28;1103;-48
2022/07/09 04:12:32;;;;;;;;;;;;;;;18.97;85.20;95063.75;5133977;28;1968;-48
2022/07/09 04:14:58;;;;;;;;;;;;;;;18.98;83.96;95070.81;5134151;28;1030;-48
2022/07/09 04:17:24;;;;;;;;;;;;;;;18.98;83.65;95068.13;5133892;28;1007;-48
2022/07/09 04:19:50;;;;;;;;;;;;;;;18.96;84.63;95063.97;5133789;28;1071;-48
2022/07/09 04:22:16;;;;;;;;;;;;;;;18.84;85.65;95063.81;5134155;28;1063;-48
2022/07/09 04:24:42;;;;;;;;;;;;;;;18.84;84.97;95066.53;5133744;28;1119;-48
2022/07/09 04:27:08;;;;;;;;;;;;;;;18.81;85.56;95072.38;5133819;28;1019;-48
2022/07/09 04:29:34;;;;;;;;;;;;;;;18.70;87.35;95071.13;5133816;28;953;-48
2022/07/09 04:32:00;;;;;;;;;;;;;;;18.70;85.36;95069.25;5133690;28;1909;-48
2022/07/09 04:34:26;;;;;;;;;;;;;;;18.80;84.97;95074.25;5133243;27;1172;-48
2022/07/09 04:36:52;;;;;;;;;;;;;;;18.90;83.90;95073.78;5137500;27;1064;-48
2022/07/09 04:39:18;;;;;;;;;;;;;;;18.85;85.13;95069.00;5137702;27;1030;-49
2022/07/09 04:41:44;;;;;;;;;;;;;;;18.79;85.36;95069.00;5137709;27;1957;-48
2022/07/09 04:44:15;;;;;;;;;;;;;;;18.79;85.77;95069.00;5155554;27;1195;-48
2022/07/09 04:46:42;;;;;;;;;;;;;;;18.80;86.54;95073.38;5158445;27;1865;-48
2022/07/09 04:49:09;;;;;;;;;;;;;;;18.82;85.59;95072.16;5157944;27;1048;-48
2022/07/09 04:51:35;;;;;;;;;;;;;;;18.92;84.57;95079.81;5158292;27;1095;-48
2022/07/09 04:54:01;;;;;;;;;;;;;;;18.85;85.92;95082.53;5158151;27;1059;-48
2022/07/09 04:56:27;;;;;;;;;;;;;;;18.83;84.75;95079.22;5158179;27;1048;-48
2022/07/09 04:58:53;;;;;;;;;;;;;;;18.88;84.01;95082.13;5157983;27;1064;-48
2022/07/09 05:01:23;;;;;;;;;;;;;;;18.88;84.08;95084.00;5139614;27;1008;-48
2022/07/09 05:03:49;;;;;;;;;;;;;;;18.91;84.27;95087.13;5157851;27;1054;-48
2022/07/09 05:06:18;;;;;;;;;;;;;;;18.90;84.96;95095.47;5157914;27;1083;-49
2022/07/09 05:08:45;;;;;;;;;;;;;;;18.92;83.71;95093.38;5157987;27;1091;-49
2022/07/09 05:11:11;;;;;;;;;;;;;;;18.95;84.90;95097.50;5157774;27;1080;-49
2022/07/09 05:13:37;;;;;;;;;;;;;;;18.88;84.53;95094.84;5157536;27;1992;-49
2022/07/09 05:16:03;;;;;;;;;;;;;;;18.96;84.02;95099.19;5157574;27;1058;-48
2022/07/09 05:18:30;;;;;;;;;;;;;;;19.03;83.19;95097.28;5157523;27;976;-48
2022/07/09 05:20:57;;;;;;;;;;;;;;;19.03;82.56;95095.41;5157850;27;980;-48
2022/07/09 05:23:23;;;;;;;;;;;;;;;19.04;82.75;95101.66;5157443;27;1024;-48
2022/07/09 05:25:49;;;;;;;;;;;;;;;19.03;83.03;95100.81;5157748;27;1063;-49
2022/07/09 05:28:15;;;;;;;;;;;;;;;18.81;85.78;95104.88;5157423;27;1106;-49
2022/07/09 05:30:41;;;;;;;;;;;;;;;18.82;85.48;95099.25;5157315;27;1056;-49
2022/07/09 05:33:08;;;;;;;;;;;;;;;18.97;83.48;95098.13;5157027;27;1984;-52
2022/07/09 05:35:34;;;;;;;;;;;;;;;19.04;82.80;95107.91;5157277;27;1051;-48
2022/07/09 05:38:00;;;;;;;;;;;;;;;19.09;82.42;95105.38;5157461;27;975;-48
2022/07/09 05:40:26;;;;;;;;;;;;;;;19.05;82.86;95108.75;5157140;27;1088;-48
2022/07/09 05:42:52;;;;;;;;;;;;;;;18.90;84.21;95100.88;5150202;27;1152;-48
2022/07/09 05:45:18;;;;;;;;;;;;;;;18.87;85.61;95104.00;5136366;27;1067;-48
2022/07/09 05:47:44;;;;;;;;;;;;;;;18.81;87.23;95108.41;5136373;27;1204;-48
2022/07/09 05:50:10;;;;;;;;;;;;;;;18.92;85.27;95101.50;5136122;27;1024;-48
2022/07/09 05:52:37;;;;;;;;;;;;;;;19.11;83.36;95102.47;5136486;27;1984;-52
2022/07/09 05:55:03;;;;;;;;;;;;;;;19.21;82.48;95108.22;5136082;27;1049;-48
2022/07/09 05:57:29;;;;;;;;;;;;;;;19.24;82.24;95102.41;5136183;27;996;-48
2022/07/09 05:59:55;;;;;;;;;;;;;;;19.27;81.80;95099.25;5136001;27;1071;-49
2022/07/09 06:02:22;;;;;;;;;;;;;;;19.24;82.46;95105.09;5136051;27;981;-52
2022/07/09 06:04:48;;;;;;;;;;;;;;;19.32;81.13;95106.72;5135946;27;983;-48
2022/07/09 06:07:15;;;;;;;;;;;;;;;19.37;79.80;95097.94;5136193;27;1030;-48
2022/07/09 06:09:41;;;;;;;;;;;;;;;19.28;80.84;95094.66;5135850;27;991;-48
2022/07/09 06:12:07;;;;;;;;;;;;;;;19.34;80.27;95101.09;5135925;27;1992;-48
2022/07/09 06:14:33;;;;;;;;;;;;;;;19.37;80.26;95103.34;5135724;27;1084;-48
2022/07/09 06:17:05;;;;;;;;;;;;;;;19.40;79.94;95109.19;5135786;27;1075;-49
2022/07/09 06:19:34;;;;;;;;;;;;;;;19.45;79.47;95109.38;5135865;27;1044;-49
2022/07/09 06:22:01;;;;;;;;;;;;;;;19.49;79.18;95104.34;5135796;27;956;-49
2022/07/09 06:24:27;;;;;;;;;;;;;;;19.49;79.12;95109.78;5135673;27;983;-49
2022/07/09 06:26:53;;;;;;;;;;;;;;;19.53;78.84;95105.56;5135751;27;1025;-48
2022/07/09 06:29:20;;;;;;;;;;;;;;;19.55;78.46;95108.06;5135318;27;1014;-48
2022/07/09 06:31:46;;;;;;;;;;;;;;;19.54;78.38;95111.81;5135496;27;1980;-48
2022/07/09 06:34:12;;;;;;;;;;;;;;;19.52;78.82;95103.91;5135015;27;1222;-49
2022/07/09 06:36:38;;;;;;;;;;;;;;;19.60;78.72;95100.94;5135477;27;929;-49
2022/07/09 06:41:49;;;;;;;;;;;;;;;19.56;79.79;95109.72;5135310;27;1032;-48
2022/07/09 06:44:15;;;;;;;;;;;;;;;19.50;79.69;95108.69;5154045;27;1126;-49
2022/07/09 06:46:41;;;;;;;;;;;;;;;19.60;78.81;95109.06;5156165;27;1249;-49
2022/07/09 06:49:07;;;;;;;;;;;;;;;19.64;78.79;95112.19;5155863;27;1844;-49
2022/07/09 06:51:33;;;;;;;;;;;;;;;19.56;80.37;95113.28;5155903;27;1050;-48
2022/07/09 06:53:59;;;;;;;;;;;;;;;19.62;79.05;95109.69;5155792;27;1983;-48
2022/07/09 06:56:25;;;;;;;;;;;;;;;19.72;77.99;95108.38;5155549;27;1059;-49
2022/07/09 06:58:51;;;;;;;;;;;;;;;19.76;78.56;95112.34;5155260;27;1048;-48
2022/07/09 07:01:17;;;;;;;;;;;;;;;19.84;77.65;95106.63;5155677;27;1024;-48
2022/07/09 07:03:43;;;;;;;;;;;;;;;19.88;77.73;95106.00;5155688;27;1846;-48
2022/07/09 07:06:09;;;;;;;;;;;;;;;20.01;77.28;95106.94;5155330;27;1031;-49
2022/07/09 07:08:35;;;;;;;;;;;;;;;20.02;80.48;95114.03;5155519;27;1018;-48
2022/07/09 07:11:01;;;;;;;;;;;;;;;20.02;79.22;95111.31;5155300;27;1012;-49
2022/07/09 07:13:27;;;;;;;;;;;;;;;20.12;75.97;95116.25;5155413;27;1988;-49
2022/07/09 07:15:53;;;;;;;;;;;;;;;20.16;76.70;95112.84;5155514;27;1047;-49
2022/07/09 07:18:19;;;;;;;;;;;;;;;20.20;76.06;95115.97;5155360;27;1090;-49
2022/07/09 07:20:45;;;;;;;;;;;;;;;20.31;76.04;95117.94;5155325;27;988;-48
2022/07/09 07:23:12;;;;;;;;;;;;;;;20.44;76.99;95117.81;5155194;27;1055;-49
2022/07/09 07:25:38;;;;;;;;;;;;;;;20.36;79.89;95118.13;5155069;27;1003;-48
2022/07/09 07:28:05;;;;;;;;;;;;;;;20.50;77.47;95126.97;5155155;27;1027;-49
2022/07/09 07:30:32;;;;;;;;;;;;;;;20.62;76.02;95125.22;5155316;27;987;-49
2022/07/09 07:32:59;;;;;;;;;;;;;;;20.66;76.41;95125.59;5155034;27;1906;-49
2022/07/09 07:35:25;;;;;;;;;;;;;;;20.66;77.03;95122.88;5154927;27;1030;-49
2022/07/09 07:37:51;;;;;;;;;;;;;;;20.63;77.04;95126.88;5155143;27;2031;-48
2022/07/09 07:40:17;;;;;;;;;;;;;;;20.68;76.87;95126.22;5154799;27;1111;-48
2022/07/09 07:42:43;;;;;;;;;;;;;;;20.51;79.32;95130.50;5149323;27;1181;-48
2022/07/09 07:45:09;;;;;;;;;;;;;;;20.50;78.20;95131.56;5134129;27;1840;-49
2022/07/09 07:47:36;;;;;;;;;;;;;;;20.55;77.27;95139.88;5134214;27;1027;-49
2022/07/09 07:50:02;;;;;;;;;;;;;;;20.56;76.70;95141.53;5134165;27;952;-49
2022/07/09 07:52:28;;;;;;;;;;;;;;;20.55;76.84;95142.59;5134087;27;1906;-49
2022/07/09 07:54:54;;;;;;;;;;;;;;;20.50;77.58;95139.72;5134331;27;955;-48
2022/07/09 07:57:20;;;;;;;;;;;;;;;20.55;76.15;95135.28;5133824;28;961;-49
2022/07/09 07:59:46;;;;;;;;;;;;;;;20.54;75.68;95135.50;5134387;28;1031;-49
2022/07/09 08:02:12;;;;;;;;;;;;;;;20.59;75.83;95146.53;5134072;28;1020;-49
2022/07/09 08:04:38;;;;;;;;;;;;;;;20.63;76.05;95143.16;5134068;28;1141;-48
2022/07/09 08:07:04;;;;;;;;;;;;;;;20.65;76.54;95137.50;5133938;28;1050;-49
2022/07/09 08:09:32;;;;;;;;;;;;;;;20.73;75.95;95147.25;5134047;27;1185;-49
2022/07/09 08:11:59;;;;;;;;;;;;;;;20.84;75.18;95144.63;5137658;27;1988;-49
2022/07/09 08:14:25;;;;;;;;;;;;;;;20.83;75.64;95144.84;5138475;27;1000;-49
2022/07/09 08:16:51;;;;;;;;;;;;;;;20.83;76.97;95142.97;5138252;27;1048;-50
2022/07/09 08:19:17;;;;;;;;;;;;;;;20.79;76.44;95140.91;5138382;27;1044;-49
2022/07/09 08:21:43;;;;;;;;;;;;;;;20.70;75.23;95145.81;5137995;27;1024;-49
2022/07/09 08:24:09;;;;;;;;;;;;;;;20.62;76.67;95140.66;5138026;27;1021;-49
2022/07/09 08:26:35;;;;;;;;;;;;;;;20.63;75.41;95135.00;5137805;27;972;-48
2022/07/09 08:29:01;;;;;;;;;;;;;;;20.63;75.68;95136.91;5137842;27;1029;-49
2022/07/09 08:31:27;;;;;;;;;;;;;;;20.57;74.12;95144.03;5137721;27;1064;-49
2022/07/09 08:33:53;;;;;;;;;;;;;;;20.47;73.59;95144.53;5137639;27;1930;-49
2022/07/09 08:36:19;;;;;;;;;;;;;;;20.38;76.15;95142.34;5137599;27;1028;-49
2022/07/09 08:38:46;;;;;;;;;;;;;;;20.34;76.24;95141.94;5137824;27;1078;-49
2022/07/09 08:41:13;;;;;;;;;;;;;;;20.43;74.99;95140.63;5137558;27;1000;-49
2022/07/09 08:43:39;;;;;;;;;;;;;;;20.58;74.61;95151.16;5151067;27;1187;-48
2022/07/09 08:46:05;;;;;;;;;;;;;;;20.70;74.60;95150.41;5158259;27;1055;-48
2022/07/09 08:48:35;;;;;;;;;;;;;;;20.73;73.44;95147.25;5158199;27;1016;-48
2022/07/09 08:51:02;;;;;;;;;;;;;;;20.76;72.72;95144.91;5158298;27;959;-49
2022/07/09 08:53:29;;;;;;;;;;;;;;;20.71;73.55;95154.81;5157986;27;1909;-49
2022/07/09 08:55:57;;;;;;;;;;;;;;;20.65;73.20;95148.38;5158098;27;1035;-49
2022/07/09 08:58:23;;;;;;;;;;;;;;;20.56;73.98;95149.69;5157893;27;1296;-48
2022/07/09 09:00:50;;;;;;;;;;;;;;;20.62;73.85;95146.94;5158324;27;965;-49
2022/07/09 09:03:17;;;;;;;;;;;;;;;20.64;73.11;95143.97;5158079;27;1047;-48
2022/07/09 09:05:43;;;;;;;;;;;;;;;20.64;72.68;95149.41;5157782;27;1035;-49
2022/07/09 09:08:24;;;;;;;;;;;;;;;20.60;72.66;95143.63;5157672;27;1024;-48
2022/07/09 09:10:50;;;;;;;;;;;;;;;20.58;73.47;95143.00;5139391;27;1392;-49
2022/07/09 09:13:19;;;;;;;;;;;;;;;20.48;75.57;95146.19;5157544;27;1909;-49
2022/07/09 09:15:45;;;;;;;;;;;;;;;20.43;74.54;95143.34;5157910;27;1011;-48
2022/07/09 09:18:11;;;;;;;;;;;;;;;20.37;75.65;95146.91;5157626;27;953;-48
2022/07/09 09:20:44;;;;;;;;;;;;;;;20.41;75.00;95145.44;5157508;27;1024;-49
2022/07/09 09:23:15;;;;;;;;;;;;;;;20.46;74.57;95142.88;5157422;27;1012;-49
2022/07/09 09:25:41;;;;;;;;;;;;;;;20.36;76.85;95147.16;5157883;27;1036;-49
2022/07/09 09:28:09;;;;;;;;;;;;;;;20.30;78.71;95154.31;5157518;27;1040;-48
2022/07/09 09:30:41;;;;;;;;;;;;;;;20.31;78.86;95139.66;5157657;27;1113;-49
2022/07/09 09:33:07;;;;;;;;;;;;;;;20.36;77.27;95141.72;5156886;27;2003;-49
2022/07/09 09:35:33;;;;;;;;;;;;;;;20.44;79.92;95142.25;5156093;27;965;-49
2022/07/09 09:37:59;;;;;;;;;;;;;;;20.46;79.55;95134.72;5156117;27;1016;-49
2022/07/09 09:40:26;;;;;;;;;;;;;;;20.58;75.98;95139.44;5156239;27;1110;-49
2022/07/09 09:42:52;;;;;;;;;;;;;;;20.53;76.77;95142.81;5130888;28;1160;-48
2022/07/09 09:45:19;;;;;;;;;;;;;;;20.51;73.96;95141.38;5135401;28;964;-49
2022/07/09 09:47:49;;;;;;;;;;;;;;;20.53;77.10;95142.00;5135258;28;998;-48
2022/07/09 09:50:19;;;;;;;;;;;;;;;20.43;77.30;95137.91;5135226;28;1189;-49
2022/07/09 09:52:47;;;;;;;;;;;;;;;20.50;74.63;95142.44;5135244;28;1985;-49
2022/07/09 09:55:14;;;;;;;;;;;;;;;20.58;74.04;95139.44;5135202;28;1016;-49
2022/07/09 09:57:40;;;;;;;;;;;;;;;20.68;73.27;95139.78;5135161;28;1062;-49
2022/07/09 10:00:06;;;;;;;;;;;;;;;20.79;72.75;95146.34;5135190;28;996;-49
2022/07/09 10:02:32;;;;;;;;;;;;;;;20.81;72.06;95136.09;5135080;28;991;-49
2022/07/09 10:04:59;;;;;;;;;;;;;;;20.76;71.68;95139.50;5135062;28;1043;-49
2022/07/09 10:07:25;;;;;;;;;;;;;;;20.76;71.41;95146.81;5135096;28;1016;-49
2022/07/09 10:09:56;;;;;;;;;;;;;;;20.74;71.26;95146.22;5134990;28;1059;-49
2022/07/09 10:12:27;;;;;;;;;;;;;;;20.73;72.66;95139.94;5134831;28;1909;-49
2022/07/09 10:14:53;;;;;;;;;;;;;;;20.82;72.65;95143.19;5134780;28;1020;-49
2022/07/09 10:17:20;;;;;;;;;;;;;;;20.81;74.37;95136.94;5134794;28;1036;-50
2022/07/09 10:19:52;;;;;;;;;;;;;;;20.78;74.11;95131.94;5134718;28;1086;-50
2022/07/09 10:22:18;;;;;;;;;;;;;;;20.76;74.39;95141.38;5134875;28;1031;-50
2022/07/09 10:24:45;;;;;;;;;;;;;;;20.71;76.54;95136.59;5134776;28;1031;-50
2022/07/09 10:27:11;;;;;;;;;;;;;;;20.78;74.57;95144.69;5134761;28;980;-50
2022/07/09 10:29:54;;;;;;;;;;;;;;;20.82;75.13;95141.28;5134584;28;945;-50
2022/07/09 10:32:26;;;;;;;;;;;;;;;20.79;75.70;95140.91;5134368;27;1909;-50
2022/07/09 10:34:58;;;;;;;;;;;;;;;20.77;75.87;95135.72;5093875;27;1141110;-50
2022/07/09 10:37:43;;;;;;;;;;;;;;;20.74;75.84;95133.44;5135582;27;957;-49
2022/07/09 10:40:13;;;;;;;;;;;;;;;20.75;77.33;95131.56;5135096;27;1035;-50
2022/07/09 10:42:41;;;;;;;;;;;;;;;20.64;76.75;95139.41;5140634;27;1240;-50
2022/07/09 10:45:22;;;;;;;;;;;;;;;20.66;74.76;95141.91;5156019;27;1073;-50
2022/07/09 10:47:53;;;;;;;;;;;;;;;20.75;75.55;95140.53;5156115;27;973;-50
2022/07/09 10:50:19;;;;;;;;;;;;;;;20.72;75.06;95141.00;5155747;27;961;-48
2022/07/09 10:52:45;;;;;;;;;;;;;;;20.63;75.04;95148.59;5155846;27;1990;-49
2022/07/09 10:55:11;;;;;;;;;;;;;;;20.73;74.04;95139.09;5155892;27;1000;-49
2022/07/09 10:57:37;;;;;;;;;;;;;;;20.94;72.60;95137.84;5155793;27;1024;-49
2022/07/09 11:00:03;;;;;;;;;;;;;;;21.09;73.05;95132.84;5155719;27;1034;-49
2022/07/09 11:02:29;;;;;;;;;;;;;;;21.27;71.83;95129.28;5155849;27;1002;-49
2022/07/09 11:04:55;;;;;;;;;;;;;;;21.43;69.39;95135.97;5155371;27;1031;-49
2022/07/09 11:07:22;;;;;;;;;;;;;;;21.46;69.00;95135.56;5155631;27;956;-49
2022/07/09 11:09:49;;;;;;;;;;;;;;;21.58;69.45;95128.28;5155664;27;982;-49
2022/07/09 11:12:21;;;;;;;;;;;;;;;21.58;66.24;95122.84;5155438;27;1984;-49
2022/07/09 11:14:49;;;;;;;;;;;;;;;21.65;66.96;95122.75;5155505;27;1076;-49
2022/07/09 11:17:16;;;;;;;;;;;;;;;21.83;68.53;95119.97;5155357;27;1103;-49
2022/07/09 11:19:42;;;;;;;;;;;;;;;22.02;66.07;95128.06;5155226;27;1027;-49
2022/07/09 11:22:08;;;;;;;;;;;;;;;22.05;64.64;95124.06;5155153;27;1166;-49
2022/07/09 11:24:34;;;;;;;;;;;;;;;22.12;64.16;95122.88;5155411;27;977;-49
2022/07/09 11:27:02;;;;;;;;;;;;;;;22.20;65.49;95125.25;5155434;27;957;-49
2022/07/09 11:29:28;;;;;;;;;;;;;;;22.23;64.16;95132.13;5155681;27;1059;-49
2022/07/09 11:31:54;;;;;;;;;;;;;;;22.15;65.91;95125.13;5155139;27;1906;-52
2022/07/09 11:34:20;;;;;;;;;;;;;;;22.22;65.06;95128.56;5154657;27;1638;-48
2022/07/09 11:36:54;;;;;;;;;;;;;;;22.11;63.34;95128.56;5155143;27;1115;-48
2022/07/09 11:39:30;;;;;;;;;;;;;;;21.91;63.70;95129.72;5154888;27;1841;-48
2022/07/09 11:41:57;;;;;;;;;;;;;;;21.64;65.32;95126.53;5155126;27;1019;-48
2022/07/09 11:44:24;;;;;;;;;;;;;;;21.55;65.64;95138.78;5134854;27;1228;-49
2022/07/09 11:47:03;;;;;;;;;;;;;;;21.51;66.68;95134.88;5134406;27;1064;-49
2022/07/09 11:49:33;;;;;;;;;;;;;;;21.42;65.21;95137.88;5134194;27;1091;-49
2022/07/09 11:51:59;;;;;;;;;;;;;;;21.36;65.90;95141.53;5134418;27;1901;-49
2022/07/09 11:54:29;;;;;;;;;;;;;;;21.25;64.68;95139.56;5134480;27;968;-49
2022/07/09 11:56:55;;;;;;;;;;;;;;;21.20;64.74;95148.41;5134176;28;1067;-49
2022/07/09 11:59:30;;;;;;;;;;;;;;;21.07;67.87;95154.00;5134277;28;965;-48
2022/07/09 12:01:57;;;;;;;;;;;;;;;20.96;64.83;95150.16;5133971;28;955;-48
2022/07/09 12:04:23;;;;;;;;;;;;;;;20.84;66.46;95157.38;5134061;28;1004;-49
2022/07/09 12:06:50;;;;;;;;;;;;;;;20.80;67.86;95156.19;5134163;28;1032;-49
2022/07/09 12:09:26;;;;;;;;;;;;;;;20.78;66.55;95155.56;5134081;28;976;-48
2022/07/09 12:11:52;;;;;;;;;;;;;;;20.86;66.38;95163.41;5134026;28;1032;-49
2022/07/09 12:14:18;;;;;;;;;;;;;;;20.88;66.07;95161.31;5133854;28;1915;-49
2022/07/09 12:16:44;;;;;;;;;;;;;;;20.78;64.18;95167.25;5134138;28;988;-49
2022/07/09 12:19:10;;;;;;;;;;;;;;;20.68;65.26;95158.81;5134094;28;1045;-49
2022/07/09 12:21:36;;;;;;;;;;;;;;;20.68;64.85;95161.53;5134011;28;1032;-50
2022/07/09 12:24:02;;;;;;;;;;;;;;;20.63;63.95;95170.31;5133851;28;1076;-50
2022/07/09 12:26:30;;;;;;;;;;;;;;;20.43;66.34;95180.50;5133878;28;1048;-50
2022/07/09 12:28:57;;;;;;;;;;;;;;;20.37;69.23;95170.53;5115633;28;1029;-50
2022/07/09 12:31:23;;;;;;;;;;;;;;;20.43;66.89;95186.78;5133900;28;1023;-49
2022/07/09 12:33:49;;;;;;;;;;;;;;;20.34;68.13;95184.56;5133628;28;1905;-49
2022/07/09 12:36:18;;;;;;;;;;;;;;;20.40;67.17;95187.22;5133375;28;1020;-50
2022/07/09 12:38:44;;;;;;;;;;;;;;;20.34;68.01;95179.97;5133948;28;1040;-49
2022/07/09 12:41:10;;;;;;;;;;;;;;;20.35;67.43;95180.78;5133627;28;980;-50
2022/07/09 12:43:36;;;;;;;;;;;;;;;20.28;67.71;95183.56;5146888;27;1161;-49
2022/07/09 12:46:02;;;;;;;;;;;;;;;20.24;67.19;95179.59;5154560;27;960;-50
2022/07/09 12:48:29;;;;;;;;;;;;;;;20.16;66.04;95180.72;5154423;27;1043;-49
2022/07/09 12:50:55;;;;;;;;;;;;;;;20.13;66.76;95180.31;5154365;27;1051;-49
2022/07/09 12:53:21;;;;;;;;;;;;;;;20.18;66.59;95181.31;5136040;27;1909;-49
2022/07/09 12:55:48;;;;;;;;;;;;;;;20.19;66.31;95180.28;5154358;27;1019;-49
2022/07/09 12:58:13;;;;;;;;;;;;;;;20.22;66.50;95185.28;5158038;27;1842;-49
2022/07/09 13:00:39;;;;;;;;;;;;;;;20.19;67.88;95188.44;5158258;27;991;-50